createdAt,value
2019-02-16T00:05:07.661Z,62520.47
2019-02-16T00:07:33.900Z,62513.96
2019-02-16T00:10:00.317Z,62522.24
2019-02-16T00:12:26.587Z,62506.43
2019-02-16T00:14:52.837Z,62513.09
2019-02-16T00:17:19.072Z,62513.14
2019-02-16T00:19:45.321Z,62522.04
2019-02-16T00:22:11.556Z,62540.71
2019-02-16T00:24:37.841Z,62533.77
2019-02-16T00:27:04.080Z,62548.32
2019-02-16T00:29:30.324Z,62541.12
2019-02-16T00:31:56.565Z,62541.32
2019-02-16T00:34:22.811Z,62550.48
2019-02-16T00:36:49.054Z,62539.21
2019-02-16T00:39:15.298Z,62545.86
2019-02-16T00:41:41.536Z,62551.03
2019-02-16T00:44:07.782Z,62533.77
2019-02-16T00:46:34.057Z,62543.96
2019-02-16T00:49:00.292Z,62539.62
2019-02-16T00:51:26.540Z,62540.71
2019-02-16T00:53:52.778Z,62531.41
2019-02-16T00:56:19.020Z,62535.06
2019-02-16T00:58:45.260Z,62536.22
2019-02-16T01:01:11.518Z,62528.13
2019-02-16T01:03:37.758Z,62520.87
2019-02-16T01:06:04.011Z,62520.20
2019-02-16T01:08:30.246Z,62522.30
2019-02-16T01:10:56.505Z,62516.14
2019-02-16T01:13:22.731Z,62521.15
2019-02-16T01:15:48.975Z,62507.12
2019-02-16T01:18:15.217Z,62503.10
2019-02-16T01:20:41.461Z,62492.72
2019-02-16T01:23:07.696Z,62489.40
2019-02-16T01:25:33.944Z,62488.05
2019-02-16T01:28:00.184Z,62473.81
2019-02-16T01:30:26.436Z,62476.65
2019-02-16T01:32:52.671Z,62466.95
2019-02-16T01:35:18.928Z,62469.60
2019-02-16T01:37:45.164Z,62464.71
2019-02-16T01:40:11.402Z,62462.54
2019-02-16T01:42:37.651Z,62447.08
2019-02-16T01:48:04.826Z,62441.04
2019-02-16T01:50:31.156Z,62435.49
2019-02-16T01:52:57.418Z,62422.67
2019-02-16T01:55:23.662Z,62439.20
2019-02-16T01:57:49.912Z,62429.86
2019-02-16T02:00:16.153Z,62432.15
2019-02-16T02:02:42.405Z,62424.57
2019-02-16T02:05:08.651Z,62403.36
2019-02-16T02:07:34.923Z,62413.79
2019-02-16T02:10:01.168Z,62412.50
2019-02-16T02:12:27.407Z,62412.37
2019-02-16T02:14:53.641Z,62406.61
2019-02-16T02:17:19.885Z,62412.09
2019-02-16T02:19:46.113Z,62397.38
2019-02-16T02:22:12.359Z,62403.27
2019-02-16T02:24:38.617Z,62409.99
2019-02-16T02:27:04.850Z,62417.53
2019-02-16T02:29:31.103Z,62412.37
2019-02-16T02:31:57.333Z,62412.09
2019-02-16T02:34:23.565Z,62407.75
2019-02-16T02:36:49.813Z,62400.57
2019-02-16T02:39:16.046Z,62401.59
2019-02-16T02:41:42.302Z,62405.45
2019-02-16T02:44:08.549Z,62403.95
2019-02-16T02:46:34.839Z,62411.41
2019-02-16T02:49:01.085Z,62405.52
2019-02-16T02:51:27.331Z,62409.45
2019-02-16T02:53:53.583Z,62416.43
2019-02-16T02:56:19.816Z,62412.09
2019-02-16T02:58:46.054Z,62404.04
2019-02-16T03:01:12.286Z,62410.48
2019-02-16T03:03:38.540Z,62411.96
2019-02-16T03:06:04.908Z,62414.12
2019-02-16T03:08:31.190Z,62416.56
2019-02-16T03:10:57.427Z,62416.36
2019-02-16T03:13:23.663Z,62424.97
2019-02-16T03:15:49.906Z,62431.63
2019-02-16T03:18:16.148Z,62423.48
2019-02-16T03:20:42.382Z,62424.16
2019-02-16T03:23:28.392Z,62429.92
2019-02-16T03:26:16.181Z,62444.09
2019-02-16T03:29:23.760Z,62436.84
2019-02-16T03:35:42.898Z,62448.02
2019-02-16T03:38:30.706Z,62454.27
2019-02-16T03:40:57.001Z,62442.41
2019-02-16T03:43:23.279Z,62454.46
2019-02-16T03:45:49.574Z,62447.27
2019-02-16T03:48:15.879Z,62450.94
2019-02-16T03:50:42.198Z,62454.81
2019-02-16T03:53:08.474Z,62449.11
2019-02-16T03:55:34.772Z,62460.91
2019-02-16T03:58:01.056Z,62460.36
2019-02-16T04:00:27.350Z,62450.81
2019-02-16T04:02:53.634Z,62459.29
2019-02-16T04:05:19.961Z,62459.84
2019-02-16T04:07:46.244Z,62456.58
2019-02-16T04:10:12.538Z,62438.93
2019-02-16T04:12:38.817Z,62455.49
2019-02-16T04:15:46.416Z,62438.61
2019-02-16T04:18:12.693Z,62437.93
2019-02-16T04:20:39.004Z,62446.80
2019-02-16T04:23:05.273Z,62430.46
2019-02-16T04:25:31.575Z,62427.76
2019-02-16T04:27:57.850Z,62428.50
2019-02-16T04:30:24.149Z,62426.32
2019-02-16T04:32:50.436Z,62434.59
2019-02-16T04:35:16.727Z,62426.86
2019-02-16T04:37:43.018Z,62428.22
2019-02-16T04:40:09.304Z,62431.63
2019-02-16T04:42:35.623Z,62414.73
2019-02-16T04:45:23.462Z,62412.57
2019-02-16T04:47:49.764Z,62407.68
2019-02-16T04:50:16.045Z,62411.96
2019-02-16T04:52:42.381Z,62407.07
2019-02-16T04:55:08.663Z,62413.93
2019-02-16T04:57:34.982Z,62403.82
2019-02-16T05:00:01.273Z,62404.04
2019-02-16T05:02:27.582Z,62408.29
2019-02-16T05:04:53.870Z,62392.16
2019-02-16T05:07:20.182Z,62347.18
2019-02-16T05:09:46.471Z,62394.54
2019-02-16T05:12:12.784Z,62398.95
2019-02-16T05:14:39.070Z,62406.13
2019-02-16T05:17:05.379Z,62375.14
2019-02-16T05:19:31.678Z,62392.71
2019-02-16T05:21:57.991Z,62397.99
2019-02-16T05:24:24.286Z,62382.96
2019-02-16T05:26:50.598Z,62378.07
2019-02-16T05:29:16.871Z,62375.69
2019-02-16T05:31:43.183Z,62379.09
2019-02-16T05:34:09.460Z,62377.39
2019-02-16T05:36:35.769Z,62363.84
2019-02-16T05:41:49.696Z,62326.31
2019-02-16T05:44:16.002Z,62309.92
2019-02-16T05:46:42.316Z,62306.21
2019-02-16T05:49:08.620Z,62303.29
2019-02-16T05:51:34.901Z,62307.01
2019-02-16T05:54:01.200Z,62309.59
2019-02-16T05:56:27.492Z,62291.71
2019-02-16T05:58:53.807Z,62291.64
2019-02-16T06:01:20.201Z,62291.77
2019-02-16T06:03:46.519Z,62280.46
2019-02-16T06:06:12.820Z,62266.06
2019-02-16T06:08:39.124Z,62261.18
2019-02-16T06:11:06.108Z,62256.04
2019-02-16T06:13:33.601Z,62245.27
2019-02-16T06:15:59.895Z,62234.32
2019-02-16T06:18:26.201Z,62240.61
2019-02-16T06:20:52.866Z,62241.96
2019-02-16T06:23:19.175Z,62227.82
2019-02-16T06:25:45.502Z,62225.12
2019-02-16T06:28:11.804Z,62217.20
2019-02-16T06:30:38.099Z,62216.52
2019-02-16T06:33:04.419Z,62224.09
2019-02-16T06:36:12.279Z,62214.97
2019-02-16T06:38:38.591Z,62209.29
2019-02-16T06:41:04.882Z,62219.21
2019-02-16T06:43:31.198Z,62209.35
2019-02-16T06:45:57.491Z,62198.79
2019-02-16T06:48:23.814Z,62208.39
2019-02-16T06:50:50.126Z,62196.09
2019-02-16T06:53:16.456Z,62202.12
2019-02-16T06:56:02.809Z,62204.41
2019-02-16T06:58:29.209Z,62214.23
2019-02-16T07:00:55.549Z,62216.39
2019-02-16T07:03:21.850Z,62210.70
2019-02-16T07:05:48.139Z,62211.93
2019-02-16T07:08:14.441Z,62214.63
2019-02-16T07:10:40.777Z,62246.41
2019-02-16T07:13:07.070Z,62237.23
2019-02-16T07:15:33.392Z,62261.72
2019-02-16T07:20:47.344Z,62293.74
2019-02-16T07:23:22.215Z,62315.28
2019-02-16T07:25:44.275Z,62317.50
2019-02-16T07:28:10.582Z,62337.82
2019-02-16T07:30:36.887Z,62333.62
2019-02-16T07:33:03.195Z,62338.85
2019-02-16T07:35:29.516Z,62357.34
2019-02-16T07:37:55.814Z,62376.30
2019-02-16T07:40:22.132Z,62379.01
2019-02-16T07:43:08.663Z,62384.44
2019-02-16T07:45:56.748Z,62378.61
2019-02-16T07:51:30.758Z,62407.61
2019-02-16T07:54:17.069Z,62416.15
2019-02-16T07:59:37.209Z,62422.39
2019-02-16T08:10:07.965Z,62429.59
2019-02-16T08:12:54.338Z,62454.95
2019-02-16T08:15:40.699Z,62463.63
2019-02-16T08:21:01.444Z,62478.13
2019-02-16T08:26:41.349Z,62389.31
2019-02-16T08:29:29.651Z,62522.24
2019-02-16T08:37:37.915Z,62560.39
2019-02-16T08:40:45.542Z,62566.71
2019-02-16T08:46:11.230Z,62625.51
2019-02-16T08:48:57.303Z,62574.85
2019-02-16T08:51:43.352Z,62625.51
2019-02-16T08:54:29.416Z,62633.61
2019-02-16T09:00:03.082Z,62652.65
2019-02-16T09:02:49.111Z,62656.43
2019-02-16T09:05:35.184Z,62651.06
2019-02-16T09:08:21.218Z,62657.31
2019-02-16T09:11:07.280Z,62679.28
2019-02-16T09:13:53.311Z,62715.73
2019-02-16T09:19:18.836Z,62736.50
2019-02-16T09:24:38.976Z,62774.48
2019-02-16T09:27:25.043Z,62772.50
2019-02-16T09:30:11.067Z,62782.11
2019-02-16T09:32:57.124Z,62773.66
2019-02-16T09:35:43.151Z,62766.04
2019-02-16T09:38:29.203Z,62753.04
2019-02-16T09:41:15.231Z,62753.26
2019-02-16T09:44:01.281Z,62741.16
2019-02-16T09:54:42.588Z,62799.93
2019-02-16T09:57:28.647Z,62843.64
2019-02-16T10:00:14.718Z,62859.45
2019-02-16T10:08:22.491Z,62898.78
2019-02-16T10:18:50.168Z,62957.55
2019-02-16T10:21:38.471Z,62956.37
2019-02-16T10:24:24.533Z,62955.93
2019-02-16T10:27:11.484Z,62950.46
2019-02-16T10:29:57.847Z,62958.37
2019-02-16T10:35:40.643Z,62952.07
2019-02-16T10:38:26.693Z,62963.06
2019-02-16T10:41:12.761Z,62956.77
2019-02-16T10:49:07.099Z,62963.73
2019-02-16T10:51:53.214Z,62973.97
2019-02-16T10:54:39.268Z,62996.27
2019-02-16T10:57:25.308Z,62994.10
2019-02-16T11:02:45.071Z,63003.43
2019-02-16T11:08:05.303Z,62988.11
2019-02-16T11:10:51.376Z,62971.77
2019-02-16T11:13:37.408Z,62983.73
2019-02-16T11:21:38.492Z,62974.30
2019-02-16T11:24:24.524Z,62995.12
2019-02-16T11:29:44.345Z,62995.71
2019-02-16T11:32:30.414Z,62994.41
2019-02-16T11:35:16.466Z,63003.43
2019-02-16T11:45:44.776Z,63015.92
2019-02-16T11:48:30.877Z,63021.36
2019-02-16T11:51:16.898Z,63030.11
2019-02-16T11:56:37.337Z,63018.37
2019-02-16T12:04:36.211Z,63013.25
2019-02-16T12:10:09.964Z,63000.64
2019-02-16T12:12:56.007Z,62991.92
2019-02-16T12:15:42.159Z,62976.89
2019-02-16T12:18:28.166Z,62991.38
2019-02-16T12:23:48.115Z,62994.10
2019-02-16T12:26:34.197Z,62969.32
2019-02-16T12:29:20.247Z,62989.18
2019-02-16T12:32:06.326Z,63009.38
2019-02-16T12:34:52.377Z,63005.01
2019-02-16T12:37:38.540Z,62985.67
2019-02-16T12:43:25.593Z,62981.39
2019-02-16T12:46:11.638Z,62968.43
2019-02-16T12:48:57.683Z,62976.96
2019-02-16T12:51:43.711Z,62962.01
2019-02-16T12:59:43.192Z,62949.09
2019-02-16T13:02:29.257Z,62955.93
2019-02-16T13:08:02.933Z,62928.96
2019-02-16T13:10:48.976Z,62939.55
2019-02-16T13:13:35.168Z,62921.21
2019-02-16T13:16:21.499Z,62922.11
2019-02-16T13:19:07.557Z,62900.08
2019-02-16T13:21:53.600Z,62907.39
2019-02-16T13:24:39.758Z,62888.23
2019-02-16T13:27:25.861Z,62915.57
2019-02-16T13:32:55.349Z,62926.48
2019-02-16T13:40:51.422Z,62903.02
2019-02-16T13:43:37.469Z,62910.13
2019-02-16T13:46:23.521Z,62909.59
2019-02-16T13:49:09.570Z,62898.14
2019-02-16T13:51:55.621Z,62884.02
2019-02-16T13:57:29.333Z,62883.47
2019-02-16T14:02:49.340Z,62874.68
2019-02-16T14:08:23.050Z,62861.39
2019-02-16T14:13:56.732Z,62859.70
2019-02-16T14:16:42.688Z,62865.29
2019-02-16T14:19:08.939Z,62850.78
2019-02-16T14:21:35.172Z,62851.82
2019-02-16T14:24:01.429Z,62834.45
2019-02-16T14:26:27.675Z,62837.11
2019-02-16T14:28:53.911Z,62825.39
2019-02-16T14:31:28.227Z,62825.67
2019-02-16T14:33:48.299Z,62803.41
2019-02-16T14:36:14.550Z,62799.11
2019-02-16T14:41:28.412Z,62814.28
2019-02-16T14:43:54.644Z,62810.42
2019-02-16T14:46:20.912Z,62794.14
2019-02-16T14:48:47.173Z,62782.98
2019-02-16T14:51:13.425Z,62785.37
2019-02-16T14:53:39.663Z,62772.42
2019-02-16T14:56:05.913Z,62776.18
2019-02-16T14:58:32.177Z,62779.24
2019-02-16T15:00:58.421Z,62759.91
2019-02-16T15:03:24.659Z,62753.93
2019-02-16T15:05:50.915Z,62745.71
2019-02-16T15:08:17.153Z,62733.11
2019-02-16T15:10:43.388Z,62736.18
2019-02-16T15:13:09.616Z,62726.39
2019-02-16T15:15:35.865Z,62713.74
2019-02-16T15:18:03.758Z,62718.50
2019-02-16T15:20:30.245Z,62715.51
2019-02-16T15:22:56.494Z,62712.77
2019-02-16T15:26:04.040Z,62713.39
2019-02-16T15:28:30.293Z,62691.56
2019-02-16T15:30:56.711Z,62693.95
2019-02-16T15:33:22.975Z,62681.78
2019-02-16T15:35:49.212Z,62677.30
2019-02-16T15:38:15.460Z,62671.66
2019-02-16T15:40:41.696Z,62664.32
2019-02-16T15:43:07.983Z,62668.66
2019-02-16T15:45:34.217Z,62672.07
2019-02-16T15:48:00.454Z,62672.54
2019-02-16T15:50:26.712Z,62673.85
2019-02-16T15:52:52.979Z,62665.14
2019-02-16T15:55:19.210Z,62643.18
2019-02-16T15:57:45.452Z,62648.68
2019-02-16T16:03:25.051Z,62641.61
2019-02-16T16:05:51.287Z,62656.43
2019-02-16T16:08:37.306Z,62636.79
2019-02-16T16:11:23.289Z,62632.66
2019-02-16T16:14:09.310Z,62642.16
2019-02-16T16:16:55.310Z,62642.38
2019-02-16T16:22:15.094Z,62627.09
2019-02-16T16:25:01.114Z,62604.60
2019-02-16T16:30:34.768Z,62621.65
2019-02-16T16:33:21.080Z,62610.23
2019-02-16T16:36:07.077Z,62587.00
2019-02-16T16:38:53.077Z,62584.96
2019-02-16T16:41:39.102Z,62590.47
2019-02-16T16:49:46.660Z,62604.38
2019-02-16T16:52:32.671Z,62618.39
2019-02-16T16:55:18.653Z,62609.48
2019-02-16T16:58:04.660Z,62603.71
2019-02-16T17:00:50.714Z,62583.48
2019-02-16T17:03:37.020Z,62590.14
2019-02-16T17:06:23.306Z,62584.03
2019-02-16T17:09:09.305Z,62591.84
2019-02-16T17:11:55.342Z,62590.25
2019-02-16T17:17:28.924Z,62596.65
2019-02-16T17:28:53.332Z,62585.50
2019-02-16T17:31:39.322Z,62608.07
2019-02-16T17:36:59.758Z,62586.19
2019-02-16T17:39:45.776Z,62597.61
2019-02-16T17:42:31.778Z,62607.80
2019-02-16T17:45:17.761Z,62592.84
2019-02-16T17:50:59.365Z,62561.13
2019-02-16T17:58:54.291Z,62566.79
2019-02-16T18:01:40.579Z,62559.04
2019-02-16T18:04:26.886Z,62578.18
2019-02-16T18:07:12.876Z,62573.91
2019-02-16T18:09:58.877Z,62568.40
2019-02-16T18:12:44.881Z,62556.31
2019-02-16T18:15:30.893Z,62555.37
2019-02-16T18:18:16.924Z,62549.93
2019-02-16T18:31:38.126Z,62542.47
2019-02-16T18:34:24.398Z,62546.68
2019-02-16T18:37:10.411Z,62533.11
2019-02-16T18:42:44.295Z,62551.03
2019-02-16T18:45:30.290Z,62565.69
2019-02-16T18:48:16.327Z,62546.40
2019-02-16T18:53:49.934Z,62541.25
2019-02-16T18:56:35.909Z,62535.96
2019-02-16T18:59:22.164Z,62544.51
2019-02-16T19:04:45.795Z,62536.28
2019-02-16T19:07:31.810Z,62531.26
2019-02-16T19:10:17.840Z,62532.62
2019-02-16T19:13:03.822Z,62530.26
2019-02-16T19:15:49.819Z,62530.26
2019-02-16T19:18:36.097Z,62532.97
2019-02-16T19:31:55.303Z,62524.95
2019-02-16T19:34:41.311Z,62522.45
2019-02-16T19:37:27.310Z,62517.82
2019-02-16T19:40:13.319Z,62538.00
2019-02-16T19:48:42.066Z,62558.49
2019-02-16T19:56:53.249Z,62556.79
2019-02-16T20:02:26.861Z,62565.55
2019-02-16T20:08:03.479Z,62546.13
2019-02-16T20:10:49.497Z,62549.93
2019-02-16T20:13:35.520Z,62548.86
2019-02-16T20:16:21.531Z,62534.74
2019-02-16T20:19:07.536Z,62530.94
2019-02-16T20:24:41.140Z,62492.24
2019-02-16T20:27:36.755Z,62504.33
2019-02-16T20:32:52.611Z,62496.65
2019-02-16T20:38:12.544Z,62506.57
2019-02-16T20:40:58.805Z,62495.78
2019-02-16T20:46:32.415Z,62509.69
2019-02-16T20:49:18.410Z,62510.76
2019-02-16T20:52:04.439Z,62532.56
2019-02-16T20:54:50.445Z,62518.44
2019-02-16T20:57:36.487Z,62534.74
2019-02-16T21:03:22.909Z,62503.78
2019-02-16T21:08:56.534Z,62490.21
2019-02-16T21:11:42.522Z,62469.66
2019-02-16T21:19:36.577Z,62464.50
2019-02-16T21:27:57.391Z,62454.94
2019-02-16T21:33:24.564Z,62457.39
2019-02-16T21:38:45.030Z,62455.84
2019-02-16T21:46:53.091Z,62463.63
2019-02-16T21:49:39.640Z,62447.14
2019-02-16T21:52:25.748Z,62458.74
2019-02-16T21:55:12.020Z,62437.17
2019-02-16T21:58:07.559Z,62438.00
2019-02-16T22:00:45.938Z,62431.47
2019-02-16T22:03:32.221Z,62423.07
2019-02-16T22:06:18.213Z,62457.52
2019-02-16T22:09:04.226Z,62461.05
2019-02-16T22:11:50.222Z,62464.71
2019-02-16T22:14:16.804Z,62454.40
2019-02-16T22:16:43.062Z,62453.52
2019-02-16T22:19:09.306Z,62469.60
2019-02-16T22:21:35.565Z,62451.62
2019-02-16T22:24:01.821Z,62457.45
2019-02-16T22:26:28.068Z,62470.69
2019-02-16T22:28:54.296Z,62462.73
2019-02-16T22:31:20.546Z,62455.84
2019-02-16T22:33:54.554Z,62451.49
2019-02-16T22:36:20.806Z,62448.24
2019-02-16T22:38:47.043Z,62445.44
2019-02-16T22:41:13.304Z,62460.31
2019-02-16T22:43:39.543Z,62460.84
2019-02-16T22:46:05.799Z,62456.90
2019-02-16T22:51:19.661Z,62486.96
2019-02-16T22:53:45.915Z,62479.91
2019-02-16T22:56:12.166Z,62472.37
2019-02-16T22:58:38.408Z,62469.52
2019-02-16T23:03:42.149Z,62485.12
2019-02-16T23:06:08.412Z,62487.57
2019-02-16T23:08:34.650Z,62467.56
2019-02-16T23:11:42.191Z,62478.35
2019-02-16T23:14:08.435Z,62471.62
2019-02-16T23:16:34.691Z,62456.64
2019-02-16T23:19:00.925Z,62451.69
2019-02-16T23:21:27.170Z,62459.70
2019-02-16T23:23:53.399Z,62483.57
2019-02-16T23:26:19.654Z,62479.16
2019-02-16T23:28:45.902Z,62479.64
2019-02-16T23:31:12.145Z,62463.96
2019-02-16T23:33:38.401Z,62464.44
2019-02-16T23:36:04.620Z,62462.41
2019-02-16T23:38:30.875Z,62469.52
2019-02-16T23:40:57.111Z,62480.32
2019-02-16T23:43:23.363Z,62490.21
2019-02-16T23:45:49.614Z,62488.05
2019-02-16T23:48:15.845Z,62479.36
2019-02-16T23:50:42.106Z,62473.39
2019-02-16T23:56:02.355Z,62485.87
2019-02-16T23:58:28.599Z,62480.71
